KBRY/BRY METAR and TAF weather

Enter ICAO airport designator
Station Type Date Time Source
KBRY METAR 2022/11/30 17:55 UTC NOAA

KBRY 301755Z AUTO 27012G16KT 10SM CLR 05/M07 A3018 RMK AO2 T00461067


Station Type Date Time Source
KBRY Decoded METAR 2022/11/30 17:55 UTC NOAA

Station name not available
Nov 30, 2022 - 12:55 PM EST / 2022.11.30 1755 UTC
Wind: from the W (270 degrees) at 14 MPH (12 KT) gusting to 18 MPH (16 KT):0
Visibility: 10 mile(s):0
Sky conditions: clear
Temperature: 40.3 F (4.6 C)
Dew Point: 19.9 F (-6.7 C)
Relative Humidity: 43%
Pressure (altimeter): 30.18 in. Hg (1022 hPa)
ob: KBRY 301755Z AUTO 27012G16KT 10SM CLR 05/M07 A3018 RMK AO2 T00461067
cycle: 18

Station Type Date Time Source
KBRY TAF UTC NOAA

Error!

Example: see airport list